sensor_id;sensor_type;location;lat;lon;timestamp;P1;P4;P2;P0;N10;N4;N25;N1;N05;TS
44530;SPS30;30240;47.418;0.700;2023-12-29T08:20:18;12.57769;;9.51973;;;;;;;
44530;SPS30;30240;47.418;0.700;2023-12-29T08:22:43;12.57769;;9.51973;;;;;;;
44530;SPS30;30240;47.418;0.700;2023-12-29T08:25:08;5.7954626;;5.3524313;;;;;;;
44530;SPS30;30240;47.418;0.700;2023-12-29T08:27:33;5.192403;;4.723469;;;;;;;
44530;SPS30;30240;47.418;0.700;2023-12-29T08:29:58;5.5684853;;4.9870553;;;;;;;
44530;SPS30;30240;47.418;0.700;2023-12-29T08:32:23;4.2486506;;3.848863;;;;;;;
44530;SPS30;30240;47.418;0.700;2023-12-29T08:34:48;4.2486506;;3.848863;;;;;;;
44530;SPS30;30240;47.418;0.700;2023-12-29T08:37:14;4.4813685;;4.027199;;;;;;;
44530;SPS30;30240;47.418;0.700;2023-12-29T08:39:38;4.4434524;;3.912327;;;;;;;
44530;SPS30;30240;47.418;0.700;2023-12-29T08:42:04;3.4567308;;3.054835;;;;;;;
44530;SPS30;30240;47.418;0.700;2023-12-29T08:44:28;4.2918544;;3.7988894;;;;;;;
44530;SPS30;30240;47.418;0.700;2023-12-29T08:46:54;4.2918544;;3.7988894;;;;;;;
44530;SPS30;30240;47.418;0.700;2023-12-29T08:49:19;3.5804622;;3.2899892;;;;;;;
44530;SPS30;30240;47.418;0.700;2023-12-29T08:51:43;3.4667163;;3.2064855;;;;;;;
44530;SPS30;30240;47.418;0.700;2023-12-29T08:54:08;3.5927038;;3.263896;;;;;;;
44530;SPS30;30240;47.418;0.700;2023-12-29T08:56:34;3.5076935;;3.157328;;;;;;;
44530;SPS30;30240;47.418;0.700;2023-12-29T08:58:58;3.5076935;;3.157328;;;;;;;
44530;SPS30;30240;47.418;0.700;2023-12-29T09:01:23;3.36015;;2.9923737;;;;;;;
44530;SPS30;30240;47.418;0.700;2023-12-29T09:03:49;4.0164156;;3.585057;;;;;;;
44530;SPS30;30240;47.418;0.700;2023-12-29T09:06:13;4.246917;;3.6863856;;;;;;;
44530;SPS30;30240;47.418;0.700;2023-12-29T09:08:38;3.9286945;;3.4618642;;;;;;;
44530;SPS30;30240;47.418;0.700;2023-12-29T09:11:04;3.8355362;;3.4388995;;;;;;;
44530;SPS30;30240;47.418;0.700;2023-12-29T09:13:28;3.8355362;;3.4388995;;;;;;;
44530;SPS30;30240;47.418;0.700;2023-12-29T09:15:54;3.0520754;;2.8117137;;;;;;;
44530;SPS30;30240;47.418;0.700;2023-12-29T09:18:18;4.257289;;3.831504;;;;;;;
44530;SPS30;30240;47.418;0.700;2023-12-29T09:20:43;3.847411;;3.5244193;;;;;;;
44530;SPS30;30240;47.418;0.700;2023-12-29T09:23:08;3.790252;;3.5264838;;;;;;;
44530;SPS30;30240;47.418;0.700;2023-12-29T09:25:33;3.790252;;3.5264838;;;;;;;
44530;SPS30;30240;47.418;0.700;2023-12-29T09:27:58;4.153386;;3.8444476;;;;;;;
44530;SPS30;30240;47.418;0.700;2023-12-29T09:30:24;3.6145718;;3.338871;;;;;;;
44530;SPS30;30240;47.418;0.700;2023-12-29T09:32:49;3.8335483;;3.5747194;;;;;;;
44530;SPS30;30240;47.418;0.700;2023-12-29T09:35:13;3.5462778;;3.3137991;;;;;;;
44530;SPS30;30240;47.418;0.700;2023-12-29T09:37:38;3.5462778;;3.3137991;;;;;;;
44530;SPS30;30240;47.418;0.700;2023-12-29T09:40:04;3.5226448;;3.2837448;;;;;;;
44530;SPS30;30240;47.418;0.700;2023-12-29T09:42:29;3.2595747;;3.06789;;;;;;;
44530;SPS30;30240;47.418;0.700;2023-12-29T09:44:53;3.5388186;;3.3886201;;;;;;;
44530;SPS30;30240;47.418;0.700;2023-12-29T09:47:20;3.9984114;;3.7654333;;;;;;;
44530;SPS30;30240;47.418;0.700;2023-12-29T09:49:47;3.9984114;;3.7654333;;;;;;;
44530;SPS30;30240;47.418;0.700;2023-12-29T09:52:09;3.1577547;;3.0025427;;;;;;;
44530;SPS30;30240;47.418;0.700;2023-12-29T09:54:33;3.199261;;2.9879003;;;;;;;
44530;SPS30;30240;47.418;0.700;2023-12-29T09:57:00;3.8989928;;3.595003;;;;;;;
44530;SPS30;30240;47.418;0.700;2023-12-29T09:59:24;3.5470674;;3.3110178;;;;;;;
44530;SPS30;30240;47.418;0.700;2023-12-29T10:01:49;3.5470674;;3.3110178;;;;;;;
44530;SPS30;30240;47.418;0.700;2023-12-29T10:04:13;3.7920904;;3.5372717;;;;;;;
44530;SPS30;30240;47.418;0.700;2023-12-29T10:06:39;4.7055755;;4.4951854;;;;;;;
44530;SPS30;30240;47.418;0.700;2023-12-29T10:09:03;3.4391506;;3.2318218;;;;;;;
44530;SPS30;30240;47.418;0.700;2023-12-29T10:11:29;3.2361534;;3.021816;;;;;;;
44530;SPS30;30240;47.418;0.700;2023-12-29T10:13:54;3.2361534;;3.021816;;;;;;;
44530;SPS30;30240;47.418;0.700;2023-12-29T10:16:22;3.5419526;;3.24641;;;;;;;
44530;SPS30;30240;47.418;0.700;2023-12-29T10:16:24;3.5419526;;3.24641;;;;;;;
44530;SPS30;30240;47.418;0.700;2023-12-29T10:18:45;4.362418;;3.9665058;;;;;;;
44530;SPS30;30240;47.418;0.700;2023-12-29T10:21:12;3.5734794;;3.3184843;;;;;;;
44530;SPS30;30240;47.418;0.700;2023-12-29T10:21:17;3.5734794;;3.3184843;;;;;;;
44530;SPS30;30240;47.418;0.700;2023-12-29T10:23:36;3.5736337;;3.2679884;;;;;;;
44530;SPS30;30240;47.418;0.700;2023-12-29T10:25:58;3.5736337;;3.2679884;;;;;;;
44530;SPS30;30240;47.418;0.700;2023-12-29T10:28:23;3.4024894;;3.1316042;;;;;;;
44530;SPS30;30240;47.418;0.700;2023-12-29T10:30:49;3.1063533;;2.8829708;;;;;;;
44530;SPS30;30240;47.418;0.700;2023-12-29T10:33:18;3.3945355;;3.1595876;;;;;;;
44530;SPS30;30240;47.418;0.700;2023-12-29T10:35:38;3.5010743;;3.2514293;;;;;;;
44530;SPS30;30240;47.418;0.700;2023-12-29T10:38:07;3.5010743;;3.2514293;;;;;;;
44530;SPS30;30240;47.418;0.700;2023-12-29T10:40:28;3.388732;;3.1086638;;;;;;;
44530;SPS30;30240;47.418;0.700;2023-12-29T10:42:54;3.2153955;;2.9250085;;;;;;;
44530;SPS30;30240;47.418;0.700;2023-12-29T10:45:18;3.3974128;;3.112153;;;;;;;
44530;SPS30;30240;47.418;0.700;2023-12-29T10:47:43;3.4438894;;3.219356;;;;;;;
44530;SPS30;30240;47.418;0.700;2023-12-29T10:50:09;3.6008587;;3.3407981;;;;;;;
44530;SPS30;30240;47.418;0.700;2023-12-29T10:52:34;3.6008587;;3.3407981;;;;;;;
44530;SPS30;30240;47.418;0.700;2023-12-29T10:55:04;3.0606725;;2.7941153;;;;;;;
44530;SPS30;30240;47.418;0.700;2023-12-29T10:57:23;3.1195092;;2.8820877;;;;;;;
44530;SPS30;30240;47.418;0.700;2023-12-29T10:59:54;2.7050948;;2.5021102;;;;;;;
44530;SPS30;30240;47.418;0.700;2023-12-29T11:02:13;3.7103164;;3.4784868;;;;;;;
44530;SPS30;30240;47.418;0.700;2023-12-29T11:04:38;3.7103164;;3.4784868;;;;;;;
44530;SPS30;30240;47.418;0.700;2023-12-29T11:07:03;2.9629714;;2.7864027;;;;;;;
44530;SPS30;30240;47.418;0.700;2023-12-29T11:09:30;3.5419233;;3.238299;;;;;;;
44530;SPS30;30240;47.418;0.700;2023-12-29T11:11:54;3.9948006;;3.63405;;;;;;;
44530;SPS30;30240;47.418;0.700;2023-12-29T11:14:18;6.8137507;;6.2496047;;;;;;;
44530;SPS30;30240;47.418;0.700;2023-12-29T11:16:43;6.8137507;;6.2496047;;;;;;;
44530;SPS30;30240;47.418;0.700;2023-12-29T11:19:08;3.423657;;3.1323361;;;;;;;
44530;SPS30;30240;47.418;0.700;2023-12-29T11:21:33;3.2429023;;3.0094159;;;;;;;
44530;SPS30;30240;47.418;0.700;2023-12-29T11:23:58;4.128966;;3.7288306;;;;;;;
44530;SPS30;30240;47.418;0.700;2023-12-29T11:26:23;3.3396046;;2.999789;;;;;;;
44530;SPS30;30240;47.418;0.700;2023-12-29T11:28:49;3.3396046;;2.999789;;;;;;;
44530;SPS30;30240;47.418;0.700;2023-12-29T11:31:14;3.5273247;;3.166007;;;;;;;
44530;SPS30;30240;47.418;0.700;2023-12-29T11:33:39;3.439143;;3.0221205;;;;;;;
44530;SPS30;30240;47.418;0.700;2023-12-29T11:36:04;3.250681;;2.8528337;;;;;;;
44530;SPS30;30240;47.418;0.700;2023-12-29T11:38:33;3.546761;;3.0989451;;;;;;;
44530;SPS30;30240;47.418;0.700;2023-12-29T11:40:57;3.546761;;3.0989451;;;;;;;
44530;SPS30;30240;47.418;0.700;2023-12-29T11:43:19;3.1250322;;2.7571776;;;;;;;
44530;SPS30;30240;47.418;0.700;2023-12-29T11:45:43;4.662007;;4.1544714;;;;;;;
44530;SPS30;30240;47.418;0.700;2023-12-29T11:48:09;3.3232188;;2.9877934;;;;;;;
44530;SPS30;30240;47.418;0.700;2023-12-29T11:50:34;3.8949146;;3.3835106;;;;;;;
44530;SPS30;30240;47.418;0.700;2023-12-29T11:53:02;3.8949146;;3.3835106;;;;;;;
44530;SPS30;30240;47.418;0.700;2023-12-29T11:55:27;3.0910385;;2.6568837;;;;;;;
44530;SPS30;30240;47.418;0.700;2023-12-29T11:57:49;3.262527;;2.8690066;;;;;;;
44530;SPS30;30240;47.418;0.700;2023-12-29T12:00:14;2.5392046;;2.2980227;;;;;;;
44530;SPS30;30240;47.418;0.700;2023-12-29T12:02:38;4.23817;;3.8098826;;;;;;;
44530;SPS30;30240;47.418;0.700;2023-12-29T12:05:04;4.23817;;3.8098826;;;;;;;
44530;SPS30;30240;47.418;0.700;2023-12-29T12:07:56;3.982854;;3.6000772;;;;;;;
44530;SPS30;30240;47.418;0.700;2023-12-29T12:10:29;3.0739856;;2.8937407;;;;;;;
44530;SPS30;30240;47.418;0.700;2023-12-29T12:12:39;2.516479;;2.3097029;;;;;;;
44530;SPS30;30240;47.418;0.700;2023-12-29T12:14:44;2.7184072;;2.452722;;;;;;;
44530;SPS30;30240;47.418;0.700;2023-12-29T12:17:08;2.9521382;;2.6292913;;;;;;;
44530;SPS30;30240;47.418;0.700;2023-12-29T12:19:33;2.9521382;;2.6292913;;;;;;;
44530;SPS30;30240;47.418;0.700;2023-12-29T12:21:58;2.9134746;;2.6040127;;;;;;;
44530;SPS30;30240;47.418;0.700;2023-12-29T12:24:23;2.8241358;;2.545068;;;;;;;
44530;SPS30;30240;47.418;0.700;2023-12-29T12:26:48;2.9116807;;2.6089723;;;;;;;
44530;SPS30;30240;47.418;0.700;2023-12-29T12:29:13;2.5399835;;2.3079739;;;;;;;
44530;SPS30;30240;47.418;0.700;2023-12-29T12:31:52;2.5399835;;2.3079739;;;;;;;
44530;SPS30;30240;47.418;0.700;2023-12-29T12:34:03;3.0083547;;2.7763023;;;;;;;
44530;SPS30;30240;47.418;0.700;2023-12-29T12:36:28;2.121937;;1.986887;;;;;;;
44530;SPS30;30240;47.418;0.700;2023-12-29T12:38:54;2.534673;;2.3779511;;;;;;;
44530;SPS30;30240;47.418;0.700;2023-12-29T12:41:18;2.6756353;;2.449922;;;;;;;
44530;SPS30;30240;47.418;0.700;2023-12-29T12:43:44;2.6756353;;2.449922;;;;;;;
44530;SPS30;30240;47.418;0.700;2023-12-29T12:46:08;2.3769836;;2.126374;;;;;;;
44530;SPS30;30240;47.418;0.700;2023-12-29T12:48:34;2.773212;;2.4121056;;;;;;;
44530;SPS30;30240;47.418;0.700;2023-12-29T12:50:59;2.220311;;1.9337955;;;;;;;
44530;SPS30;30240;47.418;0.700;2023-12-29T12:53:24;2.5567396;;2.1927767;;;;;;;
44530;SPS30;30240;47.418;0.700;2023-12-29T12:55:49;2.5567396;;2.1927767;;;;;;;
44530;SPS30;30240;47.418;0.700;2023-12-29T12:58:13;2.4626086;;2.0885134;;;;;;;
44530;SPS30;30240;47.418;0.700;2023-12-29T13:00:39;2.3851252;;2.0614893;;;;;;;
44530;SPS30;30240;47.418;0.700;2023-12-29T13:03:04;3.3783948;;2.893553;;;;;;;
44530;SPS30;30240;47.418;0.700;2023-12-29T13:05:29;2.4464333;;2.1196797;;;;;;;
44530;SPS30;30240;47.418;0.700;2023-12-29T13:07:54;2.4464333;;2.1196797;;;;;;;
44530;SPS30;30240;47.418;0.700;2023-12-29T13:10:18;1.9450972;;1.6911819;;;;;;;
44530;SPS30;30240;47.418;0.700;2023-12-29T13:12:53;3.2587776;;2.728846;;;;;;;
44530;SPS30;30240;47.418;0.700;2023-12-29T13:15:11;2.3664448;;1.9608198;;;;;;;
44530;SPS30;30240;47.418;0.700;2023-12-29T13:17:33;2.2450995;;1.8226393;;;;;;;
44530;SPS30;30240;47.418;0.700;2023-12-29T13:19:58;2.2450995;;1.8226393;;;;;;;
44530;SPS30;30240;47.418;0.700;2023-12-29T13:22:24;2.9084306;;2.3818543;;;;;;;
44530;SPS30;30240;47.418;0.700;2023-12-29T13:24:49;2.4289362;;1.9389391;;;;;;;
44530;SPS30;30240;47.418;0.700;2023-12-29T13:27:14;2.556116;;2.016978;;;;;;;
44530;SPS30;30240;47.418;0.700;2023-12-29T13:29:39;2.5081758;;1.987962;;;;;;;
44530;SPS30;30240;47.418;0.700;2023-12-29T13:32:06;2.5081758;;1.987962;;;;;;;
44530;SPS30;30240;47.418;0.700;2023-12-29T13:34:31;2.3470423;;1.8612192;;;;;;;
44530;SPS30;30240;47.418;0.700;2023-12-29T13:36:54;3.1341414;;2.5444908;;;;;;;
44530;SPS30;30240;47.418;0.700;2023-12-29T13:37:00;3.1341414;;2.5444908;;;;;;;
44530;SPS30;30240;47.418;0.700;2023-12-29T13:39:21;4.4431887;;3.739828;;;;;;;
44530;SPS30;30240;47.418;0.700;2023-12-29T13:41:44;9.36084;;7.9784236;;;;;;;
44530;SPS30;30240;47.418;0.700;2023-12-29T13:44:09;9.36084;;7.9784236;;;;;;;
44530;SPS30;30240;47.418;0.700;2023-12-29T13:46:34;10.626059;;8.930259;;;;;;;
44530;SPS30;30240;47.418;0.700;2023-12-29T13:48:59;3.407099;;2.841174;;;;;;;
44530;SPS30;30240;47.418;0.700;2023-12-29T13:51:24;4.9970207;;4.21962;;;;;;;
44530;SPS30;30240;47.418;0.700;2023-12-29T13:53:48;2.6684241;;2.3285067;;;;;;;
44530;SPS30;30240;47.418;0.700;2023-12-29T13:56:13;6.080497;;5.298513;;;;;;;
44530;SPS30;30240;47.418;0.700;2023-12-29T13:58:38;6.080497;;5.298513;;;;;;;
44530;SPS30;30240;47.418;0.700;2023-12-29T14:01:06;3.2189217;;2.8439767;;;;;;;
44530;SPS30;30240;47.418;0.700;2023-12-29T14:03:30;1.8756183;;1.7080555;;;;;;;
44530;SPS30;30240;47.418;0.700;2023-12-29T14:05:55;3.6421769;;3.1690643;;;;;;;
44530;SPS30;30240;47.418;0.700;2023-12-29T14:08:24;4.941718;;4.2728744;;;;;;;
44530;SPS30;30240;47.418;0.700;2023-12-29T14:08:24;4.941718;;4.2728744;;;;;;;
44530;SPS30;30240;47.418;0.700;2023-12-29T14:10:43;4.941718;;4.2728744;;;;;;;
44530;SPS30;30240;47.418;0.700;2023-12-29T14:13:09;6.1168475;;5.3730164;;;;;;;
44530;SPS30;30240;47.418;0.700;2023-12-29T14:15:34;2.2974195;;1.961515;;;;;;;
44530;SPS30;30240;47.418;0.700;2023-12-29T14:17:58;6.788353;;5.695536;;;;;;;
44530;SPS30;30240;47.418;0.700;2023-12-29T14:20:32;2.9724896;;2.3878253;;;;;;;
44530;SPS30;30240;47.418;0.700;2023-12-29T14:22:48;2.9724896;;2.3878253;;;;;;;
44530;SPS30;30240;47.418;0.700;2023-12-29T14:25:13;2.3526673;;1.8874906;;;;;;;
44530;SPS30;30240;47.418;0.700;2023-12-29T14:27:39;2.7253547;;2.205976;;;;;;;
44530;SPS30;30240;47.418;0.700;2023-12-29T14:30:04;2.6610699;;2.1125135;;;;;;;
44530;SPS30;30240;47.418;0.700;2023-12-29T14:30:19;2.6610699;;2.1125135;;;;;;;
44530;SPS30;30240;47.418;0.700;2023-12-29T14:32:28;7.2234483;;5.879669;;;;;;;
44530;SPS30;30240;47.418;0.700;2023-12-29T14:37:19;2.7216024;;2.23686;;;;;;;
44530;SPS30;30240;47.418;0.700;2023-12-29T14:39:46;4.831544;;3.9958224;;;;;;;
44530;SPS30;30240;47.418;0.700;2023-12-29T14:42:10;4.980854;;4.3436046;;;;;;;
44530;SPS30;30240;47.418;0.700;2023-12-29T14:44:34;2.151889;;1.8378843;;;;;;;
44530;SPS30;30240;47.418;0.700;2023-12-29T14:46:59;2.151889;;1.8378843;;;;;;;
44530;SPS30;30240;47.418;0.700;2023-12-29T14:49:24;2.5759368;;2.113076;;;;;;;
44530;SPS30;30240;47.418;0.700;2023-12-29T14:51:49;2.6288075;;2.1100357;;;;;;;
44530;SPS30;30240;47.418;0.700;2023-12-29T14:54:14;3.9020457;;3.1140046;;;;;;;
44530;SPS30;30240;47.418;0.700;2023-12-29T14:56:39;3.267978;;2.6681092;;;;;;;
44530;SPS30;30240;47.418;0.700;2023-12-29T14:59:04;3.267978;;2.6681092;;;;;;;
44530;SPS30;30240;47.418;0.700;2023-12-29T15:01:28;3.3310077;;2.745568;;;;;;;
44530;SPS30;30240;47.418;0.700;2023-12-29T15:03:53;2.9592776;;2.4681182;;;;;;;
44530;SPS30;30240;47.418;0.700;2023-12-29T15:06:19;3.4166913;;2.8930676;;;;;;;
44530;SPS30;30240;47.418;0.700;2023-12-29T15:08:47;2.8392577;;2.4044595;;;;;;;
44530;SPS30;30240;47.418;0.700;2023-12-29T15:11:08;2.8392577;;2.4044595;;;;;;;
44530;SPS30;30240;47.418;0.700;2023-12-29T15:13:34;4.630762;;3.9265463;;;;;;;
44530;SPS30;30240;47.418;0.700;2023-12-29T15:16:00;2.8385975;;2.408255;;;;;;;
44530;SPS30;30240;47.418;0.700;2023-12-29T15:18:24;3.3439672;;2.7487285;;;;;;;
44530;SPS30;30240;47.418;0.700;2023-12-29T15:20:49;2.9281762;;2.4102864;;;;;;;
44530;SPS30;30240;47.418;0.700;2023-12-29T15:23:14;3.480152;;2.8599484;;;;;;;
44530;SPS30;30240;47.418;0.700;2023-12-29T15:25:39;3.480152;;2.8599484;;;;;;;
44530;SPS30;30240;47.418;0.700;2023-12-29T15:28:04;2.4205215;;2.0317152;;;;;;;
44530;SPS30;30240;47.418;0.700;2023-12-29T15:30:28;2.579607;;2.1549885;;;;;;;
44530;SPS30;30240;47.418;0.700;2023-12-29T15:32:54;3.1440163;;2.65108;;;;;;;
44530;SPS30;30240;47.418;0.700;2023-12-29T15:35:18;2.4882088;;2.0754051;;;;;;;
44530;SPS30;30240;47.418;0.700;2023-12-29T15:37:43;2.4882088;;2.0754051;;;;;;;
44530;SPS30;30240;47.418;0.700;2023-12-29T15:40:09;3.2759879;;2.7384067;;;;;;;
44530;SPS30;30240;47.418;0.700;2023-12-29T15:42:33;3.442765;;2.8379042;;;;;;;
44530;SPS30;30240;47.418;0.700;2023-12-29T15:44:59;3.0505106;;2.477186;;;;;;;
44530;SPS30;30240;47.418;0.700;2023-12-29T15:47:23;3.3833184;;2.835375;;;;;;;
44530;SPS30;30240;47.418;0.700;2023-12-29T15:49:49;3.3833184;;2.835375;;;;;;;
44530;SPS30;30240;47.418;0.700;2023-12-29T15:52:13;2.4921513;;2.0909975;;;;;;;
44530;SPS30;30240;47.418;0.700;2023-12-29T15:54:38;3.1445634;;2.7038448;;;;;;;
44530;SPS30;30240;47.418;0.700;2023-12-29T15:57:04;2.6732926;;2.2569046;;;;;;;
44530;SPS30;30240;47.418;0.700;2023-12-29T15:59:28;2.6340084;;2.2019944;;;;;;;
44530;SPS30;30240;47.418;0.700;2023-12-29T16:01:54;2.6340084;;2.2019944;;;;;;;
44530;SPS30;30240;47.418;0.700;2023-12-29T16:04:18;3.017316;;2.422953;;;;;;;
44530;SPS30;30240;47.418;0.700;2023-12-29T16:06:43;3.0315013;;2.4413557;;;;;;;
44530;SPS30;30240;47.418;0.700;2023-12-29T16:09:09;3.119825;;2.6385624;;;;;;;
44530;SPS30;30240;47.418;0.700;2023-12-29T16:11:34;3.0520854;;2.7330394;;;;;;;
44530;SPS30;30240;47.418;0.700;2023-12-29T16:13:59;3.0520854;;2.7330394;;;;;;;
44530;SPS30;30240;47.418;0.700;2023-12-29T16:16:23;3.655417;;3.385712;;;;;;;
44530;SPS30;30240;47.418;0.700;2023-12-29T16:18:48;2.339616;;2.1831393;;;;;;;
44530;SPS30;30240;47.418;0.700;2023-12-29T16:21:13;2.311208;;2.150807;;;;;;;
44530;SPS30;30240;47.418;0.700;2023-12-29T16:23:39;2.1734846;;1.9435244;;;;;;;
44530;SPS30;30240;47.418;0.700;2023-12-29T16:26:04;2.1734846;;1.9435244;;;;;;;
44530;SPS30;30240;47.418;0.700;2023-12-29T16:28:28;4.183187;;3.9456253;;;;;;;
44530;SPS30;30240;47.418;0.700;2023-12-29T16:30:53;3.3795588;;3.2172694;;;;;;;
44530;SPS30;30240;47.418;0.700;2023-12-29T16:33:19;5.1893616;;4.9970803;;;;;;;
44530;SPS30;30240;47.418;0.700;2023-12-29T16:35:43;3.2589335;;3.1015828;;;;;;;
44530;SPS30;30240;47.418;0.700;2023-12-29T16:38:09;3.2589335;;3.1015828;;;;;;;
44530;SPS30;30240;47.418;0.700;2023-12-29T16:40:33;4.1376123;;3.9233975;;;;;;;
44530;SPS30;30240;47.418;0.700;2023-12-29T16:42:58;3.3141968;;3.057598;;;;;;;
44530;SPS30;30240;47.418;0.700;2023-12-29T16:45:24;2.959335;;2.7902389;;;;;;;
44530;SPS30;30240;47.418;0.700;2023-12-29T16:47:48;4.180244;;4.0035834;;;;;;;
44530;SPS30;30240;47.418;0.700;2023-12-29T16:50:14;4.180244;;4.0035834;;;;;;;
44530;SPS30;30240;47.418;0.700;2023-12-29T16:52:38;3.2151856;;3.0363944;;;;;;;
44530;SPS30;30240;47.418;0.700;2023-12-29T16:55:04;2.6042943;;2.4530432;;;;;;;
44530;SPS30;30240;47.418;0.700;2023-12-29T16:57:28;2.8994865;;2.766177;;;;;;;
44530;SPS30;30240;47.418;0.700;2023-12-29T16:59:53;3.435336;;3.1867082;;;;;;;
44530;SPS30;30240;47.418;0.700;2023-12-29T17:02:18;3.606993;;3.2981002;;;;;;;
44530;SPS30;30240;47.418;0.700;2023-12-29T17:04:43;3.606993;;3.2981002;;;;;;;
44530;SPS30;30240;47.418;0.700;2023-12-29T17:07:08;3.2802818;;2.9932768;;;;;;;
44530;SPS30;30240;47.418;0.700;2023-12-29T17:09:34;2.5443113;;2.3793018;;;;;;;
44530;SPS30;30240;47.418;0.700;2023-12-29T17:11:58;3.0668511;;2.8651133;;;;;;;
44530;SPS30;30240;47.418;0.700;2023-12-29T17:14:23;2.7883167;;2.5722163;;;;;;;
44530;SPS30;30240;47.418;0.700;2023-12-29T17:16:48;2.7883167;;2.5722163;;;;;;;
44530;SPS30;30240;47.418;0.700;2023-12-29T17:19:13;3.165974;;2.9419057;;;;;;;
44530;SPS30;30240;47.418;0.700;2023-12-29T17:21:38;2.336277;;2.1452918;;;;;;;
44530;SPS30;30240;47.418;0.700;2023-12-29T17:24:04;2.9445324;;2.6635878;;;;;;;
44530;SPS30;30240;47.418;0.700;2023-12-29T17:26:28;2.712772;;2.3891144;;;;;;;
44530;SPS30;30240;47.418;0.700;2023-12-29T17:28:53;2.712772;;2.3891144;;;;;;;
44530;SPS30;30240;47.418;0.700;2023-12-29T17:31:18;2.47243;;2.1898575;;;;;;;
44530;SPS30;30240;47.418;0.700;2023-12-29T17:33:44;2.5323513;;2.2953203;;;;;;;
44530;SPS30;30240;47.418;0.700;2023-12-29T17:36:08;2.1572566;;1.9652863;;;;;;;
44530;SPS30;30240;47.418;0.700;2023-12-29T17:38:33;2.4581597;;2.281478;;;;;;;
44530;SPS30;30240;47.418;0.700;2023-12-29T17:41:01;2.4581597;;2.281478;;;;;;;
44530;SPS30;30240;47.418;0.700;2023-12-29T17:43:23;2.3043983;;2.1163588;;;;;;;
44530;SPS30;30240;47.418;0.700;2023-12-29T17:45:49;2.7233503;;2.4235961;;;;;;;
44530;SPS30;30240;47.418;0.700;2023-12-29T17:48:13;2.7339478;;2.4048665;;;;;;;
44530;SPS30;30240;47.418;0.700;2023-12-29T17:50:38;3.0673175;;2.7390172;;;;;;;
44530;SPS30;30240;47.418;0.700;2023-12-29T17:53:04;3.0673175;;2.7390172;;;;;;;
44530;SPS30;30240;47.418;0.700;2023-12-29T17:55:28;5.6730847;;5.180324;;;;;;;
44530;SPS30;30240;47.418;0.700;2023-12-29T17:57:53;2.52941;;2.3234653;;;;;;;
44530;SPS30;30240;47.418;0.700;2023-12-29T18:00:19;3.6209278;;3.2050564;;;;;;;
44530;SPS30;30240;47.418;0.700;2023-12-29T18:02:43;2.7559311;;2.4366512;;;;;;;
44530;SPS30;30240;47.418;0.700;2023-12-29T18:05:08;2.7559311;;2.4366512;;;;;;;
44530;SPS30;30240;47.418;0.700;2023-12-29T18:07:33;3.5120316;;3.131809;;;;;;;
44530;SPS30;30240;47.418;0.700;2023-12-29T18:09:58;3.7872207;;3.4071062;;;;;;;
44530;SPS30;30240;47.418;0.700;2023-12-29T18:12:23;3.5818996;;3.2349458;;;;;;;
44530;SPS30;30240;47.418;0.700;2023-12-29T18:14:48;4.232511;;3.9568315;;;;;;;
44530;SPS30;30240;47.418;0.700;2023-12-29T18:17:14;4.232511;;3.9568315;;;;;;;
44530;SPS30;30240;47.418;0.700;2023-12-29T18:19:39;4.33276;;4.143349;;;;;;;
44530;SPS30;30240;47.418;0.700;2023-12-29T18:22:04;4.5949535;;4.458223;;;;;;;
44530;SPS30;30240;47.418;0.700;2023-12-29T18:24:28;4.043868;;3.9277384;;;;;;;
44530;SPS30;30240;47.418;0.700;2023-12-29T18:26:53;4.251723;;4.1114783;;;;;;;
44530;SPS30;30240;47.418;0.700;2023-12-29T18:29:18;3.5516357;;3.456278;;;;;;;
44530;SPS30;30240;47.418;0.700;2023-12-29T18:31:43;3.5516357;;3.456278;;;;;;;
44530;SPS30;30240;47.418;0.700;2023-12-29T18:34:08;3.0137136;;2.8963957;;;;;;;
44530;SPS30;30240;47.418;0.700;2023-12-29T18:36:33;2.7137468;;2.6174467;;;;;;;
44530;SPS30;30240;47.418;0.700;2023-12-29T18:38:58;3.8652976;;3.6068497;;;;;;;
44530;SPS30;30240;47.418;0.700;2023-12-29T18:41:23;4.2864327;;3.881732;;;;;;;
44530;SPS30;30240;47.418;0.700;2023-12-29T18:43:49;4.2864327;;3.881732;;;;;;;
44530;SPS30;30240;47.418;0.700;2023-12-29T18:46:13;3.4798882;;3.15019;;;;;;;
44530;SPS30;30240;47.418;0.700;2023-12-29T18:48:38;3.7913203;;3.4774973;;;;;;;
44530;SPS30;30240;47.418;0.700;2023-12-29T18:51:03;2.9590945;;2.722009;;;;;;;
44530;SPS30;30240;47.418;0.700;2023-12-29T18:53:29;3.6280682;;3.3114352;;;;;;;
44530;SPS30;30240;47.418;0.700;2023-12-29T18:55:54;3.6280682;;3.3114352;;;;;;;
44530;SPS30;30240;47.418;0.700;2023-12-29T18:58:19;3.8670595;;3.5197642;;;;;;;
44530;SPS30;30240;47.418;0.700;2023-12-29T19:00:44;4.710778;;4.33607;;;;;;;
44530;SPS30;30240;47.418;0.700;2023-12-29T19:03:09;4.359616;;4.046431;;;;;;;
44530;SPS30;30240;47.418;0.700;2023-12-29T19:05:33;3.5434966;;3.2841191;;;;;;;
44530;SPS30;30240;47.418;0.700;2023-12-29T19:07:58;3.5434966;;3.2841191;;;;;;;
44530;SPS30;30240;47.418;0.700;2023-12-29T19:10:23;3.4145222;;3.1931684;;;;;;;
44530;SPS30;30240;47.418;0.700;2023-12-29T19:12:48;3.4636362;;3.213069;;;;;;;
44530;SPS30;30240;47.418;0.700;2023-12-29T19:15:13;3.8994625;;3.5420387;;;;;;;
44530;SPS30;30240;47.418;0.700;2023-12-29T19:17:38;4.634513;;4.2322373;;;;;;;
44530;SPS30;30240;47.418;0.700;2023-12-29T19:20:04;4.634513;;4.2322373;;;;;;;
44530;SPS30;30240;47.418;0.700;2023-12-29T19:22:29;4.0248914;;3.6496606;;;;;;;
44530;SPS30;30240;47.418;0.700;2023-12-29T19:24:53;3.3329828;;3.1195533;;;;;;;
44530;SPS30;30240;47.418;0.700;2023-12-29T19:27:18;3.8447866;;3.5729675;;;;;;;
44530;SPS30;30240;47.418;0.700;2023-12-29T19:29:43;3.6182747;;3.389734;;;;;;;
44530;SPS30;30240;47.418;0.700;2023-12-29T19:32:08;3.6182747;;3.389734;;;;;;;
44530;SPS30;30240;47.418;0.700;2023-12-29T19:34:34;3.6819177;;3.4674826;;;;;;;
44530;SPS30;30240;47.418;0.700;2023-12-29T19:36:58;4.8622146;;4.5454288;;;;;;;
44530;SPS30;30240;47.418;0.700;2023-12-29T19:39:23;2.7678416;;2.5477955;;;;;;;
44530;SPS30;30240;47.418;0.700;2023-12-29T19:41:49;3.231412;;2.9870834;;;;;;;
44530;SPS30;30240;47.418;0.700;2023-12-29T19:44:14;3.231412;;2.9870834;;;;;;;
44530;SPS30;30240;47.418;0.700;2023-12-29T19:46:40;2.7238996;;2.5443027;;;;;;;
44530;SPS30;30240;47.418;0.700;2023-12-29T19:49:03;4.1506705;;3.8285837;;;;;;;
44530;SPS30;30240;47.418;0.700;2023-12-29T19:51:29;4.7190976;;4.248666;;;;;;;
44530;SPS30;30240;47.418;0.700;2023-12-29T19:53:53;3.825014;;3.4304836;;;;;;;
44530;SPS30;30240;47.418;0.700;2023-12-29T19:56:23;2.9517748;;2.6690166;;;;;;;
44530;SPS30;30240;47.418;0.700;2023-12-29T19:58:43;2.9517748;;2.6690166;;;;;;;
44530;SPS30;30240;47.418;0.700;2023-12-29T20:01:08;3.763221;;3.4092078;;;;;;;
44530;SPS30;30240;47.418;0.700;2023-12-29T20:03:33;3.1830986;;2.8507164;;;;;;;
44530;SPS30;30240;47.418;0.700;2023-12-29T20:05:58;3.060944;;2.689903;;;;;;;
44530;SPS30;30240;47.418;0.700;2023-12-29T20:08:23;3.8191547;;3.3959973;;;;;;;
44530;SPS30;30240;47.418;0.700;2023-12-29T20:10:49;3.8191547;;3.3959973;;;;;;;
44530;SPS30;30240;47.418;0.700;2023-12-29T20:13:14;2.6008778;;2.3752065;;;;;;;
44530;SPS30;30240;47.418;0.700;2023-12-29T20:15:38;3.6156526;;3.304174;;;;;;;
44530;SPS30;30240;47.418;0.700;2023-12-29T20:18:04;3.8159707;;3.4161248;;;;;;;
44530;SPS30;30240;47.418;0.700;2023-12-29T20:20:28;3.462061;;3.067429;;;;;;;
44530;SPS30;30240;47.418;0.700;2023-12-29T20:22:53;3.462061;;3.067429;;;;;;;
44530;SPS30;30240;47.418;0.700;2023-12-29T20:25:18;2.9358675;;2.6630208;;;;;;;